createdAt,value
2022-11-27T00:00:59.210Z,6.40
2022-11-27T00:03:27.611Z,6.40
2022-11-27T00:05:58.896Z,6.30
2022-11-27T00:08:27.061Z,6.30
2022-11-27T00:10:54.979Z,6.40
2022-11-27T00:13:22.945Z,6.40
2022-11-27T00:15:51.739Z,6.50
2022-11-27T00:18:19.869Z,6.50
2022-11-27T00:20:47.822Z,6.60
2022-11-27T00:23:17.140Z,6.60
2022-11-27T00:25:51.288Z,6.60
2022-11-27T00:28:19.342Z,6.70
2022-11-27T00:30:47.426Z,6.70
2022-11-27T00:33:15.377Z,6.80
2022-11-27T00:35:43.581Z,6.90
2022-11-27T00:38:11.589Z,7.00
2022-11-27T00:40:40.901Z,6.50
2022-11-27T00:43:08.881Z,6.70
2022-11-27T00:45:36.802Z,6.90
2022-11-27T00:48:05.104Z,6.60
2022-11-27T00:50:33.443Z,6.40
2022-11-27T00:53:01.452Z,6.30
2022-11-27T00:55:29.416Z,6.30
2022-11-27T00:57:58.766Z,6.30
2022-11-27T01:00:26.709Z,6.10
2022-11-27T01:02:54.725Z,6.20
2022-11-27T01:05:22.850Z,6.50
2022-11-27T01:07:51.092Z,6.60
2022-11-27T01:10:19.227Z,6.70
2022-11-27T01:12:50.061Z,6.60
2022-11-27T01:15:19.658Z,6.50
2022-11-27T01:17:47.730Z,6.60
2022-11-27T01:20:15.765Z,6.70
2022-11-27T01:22:43.737Z,6.80
2022-11-27T01:25:11.682Z,6.90
2022-11-27T01:27:39.661Z,6.80
2022-11-27T01:30:09.122Z,6.80
2022-11-27T01:32:38.466Z,6.90
2022-11-27T01:35:07.193Z,6.80
2022-11-27T01:37:35.161Z,6.80
2022-11-27T01:40:03.130Z,6.70
2022-11-27T01:42:31.126Z,6.60
2022-11-27T01:44:59.091Z,6.60
2022-11-27T01:47:42.723Z,6.60
2022-11-27T01:50:16.006Z,6.60
2022-11-27T01:52:49.022Z,6.80
2022-11-27T01:55:21.631Z,6.90
2022-11-27T01:57:52.321Z,6.60
2022-11-27T02:00:22.820Z,6.70
2022-11-27T02:02:52.282Z,6.70
2022-11-27T02:05:23.852Z,6.40
2022-11-27T02:07:53.367Z,6.30
2022-11-27T02:10:22.043Z,6.30
2022-11-27T02:12:57.424Z,6.30
2022-11-27T02:15:32.350Z,6.40
2022-11-27T02:18:10.222Z,6.50
2022-11-27T02:20:53.832Z,6.80
2022-11-27T02:23:54.622Z,6.90
2022-11-27T02:26:44.287Z,6.80
2022-11-27T02:29:14.739Z,6.90
2022-11-27T02:31:48.642Z,7.10
2022-11-27T02:34:24.113Z,7.20
2022-11-27T02:36:58.205Z,7.20
2022-11-27T02:39:32.724Z,7.10
2022-11-27T02:42:07.230Z,7.10
2022-11-27T02:44:42.110Z,7.20
2022-11-27T02:47:13.027Z,7.00
2022-11-27T02:49:43.739Z,7.10
2022-11-27T02:52:14.504Z,7.20
2022-11-27T02:54:44.455Z,7.10
2022-11-27T02:57:14.073Z,7.20
2022-11-27T02:59:45.624Z,7.10
2022-11-27T03:02:19.954Z,7.20
2022-11-27T03:04:51.291Z,7.20
2022-11-27T03:07:29.197Z,7.20
2022-11-27T03:10:04.286Z,7.20
2022-11-27T03:12:32.282Z,7.00
2022-11-27T03:15:01.765Z,7.00
2022-11-27T03:17:42.751Z,7.00
2022-11-27T03:20:18.241Z,7.10
2022-11-27T03:22:46.341Z,7.00
2022-11-27T03:25:16.153Z,7.00
2022-11-27T03:27:49.750Z,6.60
2022-11-27T03:30:19.283Z,6.60
2022-11-27T03:32:47.323Z,6.60
2022-11-27T03:35:19.620Z,6.70
2022-11-27T03:37:47.893Z,6.70
2022-11-27T03:40:17.597Z,6.60
2022-11-27T03:42:57.395Z,6.50
2022-11-27T03:45:35.296Z,6.20
2022-11-27T03:48:14.274Z,6.30
2022-11-27T03:50:54.694Z,6.60
2022-11-27T03:53:32.486Z,6.60
2022-11-27T03:56:09.947Z,6.80
2022-11-27T03:58:44.975Z,6.90
2022-11-27T04:01:18.566Z,7.00
2022-11-27T04:03:46.579Z,7.10
2022-11-27T04:06:14.662Z,7.10
2022-11-27T04:08:43.460Z,7.00
2022-11-27T04:11:11.418Z,6.90
2022-11-27T04:13:39.441Z,6.50
2022-11-27T04:16:08.539Z,6.20
2022-11-27T04:18:38.004Z,6.10
2022-11-27T04:21:06.322Z,6.30
2022-11-27T04:23:34.280Z,6.50
2022-11-27T04:26:02.286Z,6.60
2022-11-27T04:28:30.655Z,6.60
2022-11-27T04:30:58.744Z,6.50
2022-11-27T04:33:26.770Z,6.30
2022-11-27T04:35:56.285Z,6.20
2022-11-27T04:38:25.073Z,6.20
2022-11-27T04:40:53.678Z,6.20
2022-11-27T04:43:21.855Z,6.30
2022-11-27T04:45:49.877Z,6.10
2022-11-27T04:48:17.823Z,5.70
2022-11-27T04:50:45.794Z,6.00
2022-11-27T04:53:15.106Z,6.10
2022-11-27T04:55:43.088Z,6.20
2022-11-27T04:58:11.063Z,5.90
2022-11-27T05:00:39.053Z,5.90
2022-11-27T05:03:07.076Z,5.90
2022-11-27T05:05:35.158Z,6.00
2022-11-27T05:08:03.241Z,6.10
2022-11-27T05:10:32.579Z,6.10
2022-11-27T05:13:00.569Z,6.10
2022-11-27T05:15:28.580Z,6.00
2022-11-27T05:17:56.535Z,6.00
2022-11-27T05:20:24.544Z,5.80
2022-11-27T05:22:52.533Z,5.90
2022-11-27T05:25:20.526Z,5.90
2022-11-27T05:27:49.898Z,6.00
2022-11-27T05:30:17.940Z,6.10
2022-11-27T05:32:45.914Z,6.30
2022-11-27T05:35:13.937Z,6.40
2022-11-27T05:37:41.894Z,6.10
2022-11-27T05:40:10.488Z,5.90
2022-11-27T05:42:38.454Z,5.90
2022-11-27T05:45:09.177Z,5.90
2022-11-27T05:47:37.145Z,6.10
2022-11-27T05:50:05.567Z,6.00
2022-11-27T05:52:33.579Z,6.00
2022-11-27T05:55:01.687Z,5.70
2022-11-27T05:57:30.981Z,5.80
2022-11-27T05:59:59.109Z,5.60
2022-11-27T06:02:29.646Z,5.80
2022-11-27T06:04:57.917Z,5.40
2022-11-27T06:07:25.972Z,5.30
2022-11-27T06:09:53.996Z,5.50
2022-11-27T06:12:21.985Z,5.70
2022-11-27T06:14:49.960Z,5.80
2022-11-27T06:17:18.035Z,5.70
2022-11-27T06:19:47.372Z,5.60
2022-11-27T06:22:15.352Z,5.70
2022-11-27T06:24:43.447Z,5.80
2022-11-27T06:27:11.493Z,5.80
2022-11-27T06:29:39.651Z,5.80
2022-11-27T06:32:07.772Z,5.90
2022-11-27T06:34:35.781Z,5.90
2022-11-27T06:37:08.057Z,5.70
2022-11-27T06:39:39.868Z,5.40
2022-11-27T06:42:07.861Z,5.20
2022-11-27T06:44:35.848Z,5.50
2022-11-27T06:47:03.875Z,5.50
2022-11-27T06:49:31.839Z,5.60
2022-11-27T06:51:59.834Z,5.50
2022-11-27T06:54:29.234Z,5.60
2022-11-27T06:56:58.410Z,5.70
2022-11-27T06:59:26.393Z,5.90
2022-11-27T07:01:54.541Z,6.10
2022-11-27T07:04:22.746Z,6.10
2022-11-27T07:06:50.818Z,6.10
2022-11-27T07:09:19.006Z,6.10
2022-11-27T07:11:48.413Z,6.10
2022-11-27T07:14:16.386Z,6.00
2022-11-27T07:16:44.430Z,6.10
2022-11-27T07:19:12.460Z,6.20
2022-11-27T07:21:40.939Z,6.30
2022-11-27T07:24:09.450Z,6.40
2022-11-27T07:26:37.442Z,6.30
2022-11-27T07:29:06.764Z,6.40
2022-11-27T07:31:34.927Z,6.30
2022-11-27T07:34:05.731Z,6.30
2022-11-27T07:36:34.979Z,6.50
2022-11-27T07:39:02.938Z,6.50
2022-11-27T07:41:34.071Z,6.40
2022-11-27T07:44:02.883Z,6.40
2022-11-27T07:46:32.233Z,6.40
2022-11-27T07:49:01.309Z,6.30
2022-11-27T07:51:29.769Z,6.20
2022-11-27T07:53:57.909Z,6.40
2022-11-27T07:56:25.920Z,6.30
2022-11-27T07:58:53.886Z,6.10
2022-11-27T08:01:22.357Z,6.10
2022-11-27T08:03:52.038Z,6.20
2022-11-27T08:06:22.551Z,6.10
2022-11-27T08:08:51.514Z,6.10
2022-11-27T08:11:21.776Z,6.10
2022-11-27T08:13:50.584Z,6.20
2022-11-27T08:16:18.690Z,6.50
2022-11-27T08:18:46.734Z,6.70
2022-11-27T08:21:16.360Z,6.60
2022-11-27T08:23:44.328Z,6.70
2022-11-27T08:26:13.725Z,6.70
2022-11-27T08:28:42.480Z,6.60
2022-11-27T08:31:12.456Z,6.80
2022-11-27T08:33:40.548Z,6.90
2022-11-27T08:36:13.666Z,7.00
2022-11-27T08:38:47.278Z,6.80
2022-11-27T08:41:15.350Z,6.80
2022-11-27T08:43:43.413Z,6.90
2022-11-27T08:46:12.065Z,6.80
2022-11-27T08:48:40.376Z,6.90
2022-11-27T08:51:10.441Z,7.00
2022-11-27T08:53:39.292Z,7.00
2022-11-27T08:56:10.706Z,6.80
2022-11-27T08:58:41.015Z,6.80
2022-11-27T09:01:11.017Z,6.80
2022-11-27T09:03:39.533Z,6.90
2022-11-27T09:06:09.287Z,7.00
2022-11-27T09:08:37.410Z,7.00
2022-11-27T09:11:05.746Z,7.20
2022-11-27T09:13:36.958Z,7.10
2022-11-27T09:16:06.419Z,7.10
2022-11-27T09:18:35.081Z,7.20
2022-11-27T09:21:04.962Z,7.20
2022-11-27T09:23:33.487Z,7.20
2022-11-27T09:26:02.337Z,7.50
2022-11-27T09:28:31.831Z,7.50
2022-11-27T09:31:03.555Z,7.50
2022-11-27T09:33:33.214Z,7.50
2022-11-27T09:36:05.865Z,7.90
2022-11-27T09:38:34.030Z,7.80
2022-11-27T09:41:06.338Z,8.00
2022-11-27T09:43:43.010Z,7.60
2022-11-27T09:46:17.642Z,7.70
2022-11-27T09:48:50.344Z,7.50
2022-11-27T09:51:26.561Z,7.70
2022-11-27T09:54:01.935Z,7.70
2022-11-27T09:56:31.054Z,7.80
2022-11-27T09:59:00.634Z,7.90
2022-11-27T10:01:40.420Z,8.10
2022-11-27T10:04:14.886Z,8.00
2022-11-27T10:06:53.001Z,7.90
2022-11-27T10:09:33.461Z,7.70
2022-11-27T10:12:08.590Z,7.40
2022-11-27T10:14:48.345Z,7.50
2022-11-27T10:17:21.878Z,7.60
2022-11-27T10:19:56.328Z,7.60
2022-11-27T10:22:30.364Z,7.70
2022-11-27T10:25:12.403Z,7.70
2022-11-27T10:27:46.308Z,7.50
2022-11-27T10:30:17.594Z,7.40
2022-11-27T10:32:56.520Z,7.60
2022-11-27T10:35:26.365Z,7.70
2022-11-27T10:37:59.748Z,7.80
2022-11-27T10:40:34.342Z,8.10
2022-11-27T10:43:08.779Z,8.30
2022-11-27T10:45:44.322Z,8.40
2022-11-27T10:48:14.700Z,8.50
2022-11-27T10:50:44.014Z,8.60
2022-11-27T10:53:15.769Z,8.60
2022-11-27T10:55:58.078Z,8.40
2022-11-27T10:58:33.368Z,8.60
2022-11-27T11:01:02.875Z,8.70
2022-11-27T11:03:32.255Z,8.60
2022-11-27T11:06:20.194Z,8.70
2022-11-27T11:08:49.529Z,8.60
2022-11-27T11:11:27.520Z,8.70
2022-11-27T11:13:55.957Z,8.60
2022-11-27T11:16:31.898Z,8.60
2022-11-27T11:19:06.231Z,8.40
2022-11-27T11:21:36.283Z,8.70
2022-11-27T11:24:07.523Z,8.80
2022-11-27T11:26:39.078Z,9.00
2022-11-27T11:29:29.043Z,9.10
2022-11-27T11:31:57.808Z,9.10
2022-11-27T11:34:30.098Z,9.10
2022-11-27T11:37:00.892Z,9.20
2022-11-27T11:39:31.782Z,8.90
2022-11-27T11:42:00.271Z,8.50
2022-11-27T11:44:34.164Z,8.20
2022-11-27T11:47:02.589Z,8.00
2022-11-27T11:49:35.788Z,8.00
2022-11-27T11:52:24.850Z,8.00
2022-11-27T11:55:01.381Z,8.20
2022-11-27T11:57:47.966Z,8.40
2022-11-27T12:00:18.128Z,8.60
2022-11-27T12:02:59.950Z,8.90
2022-11-27T12:05:37.991Z,8.80
2022-11-27T12:08:34.377Z,8.80
2022-11-27T12:11:09.979Z,8.50
2022-11-27T12:14:03.280Z,8.60
2022-11-27T12:16:42.074Z,8.50
2022-11-27T12:19:34.915Z,8.40
2022-11-27T12:22:18.687Z,8.10
2022-11-27T12:24:56.636Z,8.40
2022-11-27T12:27:44.595Z,8.60
2022-11-27T12:30:16.792Z,8.70
2022-11-27T12:33:00.603Z,8.40
2022-11-27T12:35:33.314Z,8.20
2022-11-27T12:38:20.684Z,7.80
2022-11-27T12:41:13.700Z,7.80
2022-11-27T12:43:46.438Z,7.80
2022-11-27T12:46:20.082Z,7.60
2022-11-27T12:48:53.140Z,7.50
2022-11-27T12:51:26.326Z,7.50
2022-11-27T12:54:00.373Z,7.30
2022-11-27T12:56:32.014Z,7.10
2022-11-27T12:59:06.025Z,7.10
2022-11-27T13:01:37.460Z,7.00
2022-11-27T13:04:18.251Z,6.90
2022-11-27T13:06:53.670Z,6.80
2022-11-27T13:09:34.818Z,7.00
2022-11-27T13:12:04.006Z,6.90
2022-11-27T13:14:36.830Z,7.20
2022-11-27T13:17:06.860Z,7.40
2022-11-27T13:19:39.982Z,7.30
2022-11-27T13:22:13.490Z,7.40
2022-11-27T13:24:43.276Z,7.60
2022-11-27T13:27:15.384Z,7.30
2022-11-27T13:29:46.945Z,7.40
2022-11-27T13:32:22.620Z,7.70
2022-11-27T13:34:52.668Z,7.70
2022-11-27T13:37:29.828Z,7.70
2022-11-27T13:40:05.404Z,7.50
2022-11-27T13:42:37.260Z,7.30
2022-11-27T13:45:11.132Z,7.30
2022-11-27T13:47:42.910Z,7.40
2022-11-27T13:50:13.904Z,7.40
2022-11-27T13:52:54.695Z,7.30
2022-11-27T13:55:30.108Z,7.30
2022-11-27T13:57:59.735Z,7.30
2022-11-27T14:00:36.877Z,7.20
2022-11-27T14:03:05.991Z,7.10
2022-11-27T14:05:41.066Z,7.10
2022-11-27T14:08:21.675Z,7.20
2022-11-27T14:10:58.588Z,7.30
2022-11-27T14:13:40.409Z,7.60
2022-11-27T14:16:25.142Z,7.60
2022-11-27T14:18:54.632Z,7.70
2022-11-27T14:21:27.180Z,7.80
2022-11-27T14:23:55.459Z,7.60
2022-11-27T14:26:26.660Z,7.60
2022-11-27T14:28:57.150Z,7.70
2022-11-27T14:31:29.928Z,7.80
2022-11-27T14:34:16.864Z,7.60
2022-11-27T14:36:45.805Z,7.30
2022-11-27T14:39:23.891Z,7.40
2022-11-27T14:42:00.742Z,7.60
2022-11-27T14:44:29.636Z,7.60
2022-11-27T14:47:00.079Z,7.70
2022-11-27T14:49:29.838Z,7.50
2022-11-27T14:52:02.020Z,7.60
2022-11-27T14:54:32.914Z,7.50
2022-11-27T14:57:03.110Z,7.70
2022-11-27T14:59:31.148Z,7.80
2022-11-27T15:02:02.286Z,7.90
2022-11-27T15:04:34.835Z,7.70
2022-11-27T15:07:06.123Z,7.80
2022-11-27T15:09:37.071Z,7.50
2022-11-27T15:12:15.306Z,7.50
2022-11-27T15:14:47.806Z,7.60
2022-11-27T15:17:20.279Z,7.60
2022-11-27T15:19:48.580Z,7.70
2022-11-27T15:22:18.536Z,7.50
2022-11-27T15:24:46.756Z,7.50
2022-11-27T15:27:21.300Z,7.60
2022-11-27T15:30:12.117Z,7.60
2022-11-27T15:32:51.553Z,7.30
2022-11-27T15:35:25.187Z,7.10
2022-11-27T15:37:54.476Z,7.20
2022-11-27T15:40:31.197Z,7.10
2022-11-27T15:43:00.642Z,7.10
2022-11-27T15:45:30.842Z,7.60
2022-11-27T15:48:00.750Z,7.10
2022-11-27T15:50:29.656Z,7.10
2022-11-27T15:52:57.729Z,6.90
2022-11-27T15:55:25.982Z,6.90
2022-11-27T15:57:53.940Z,6.80
2022-11-27T16:00:23.735Z,6.60
2022-11-27T16:02:52.480Z,6.80
2022-11-27T16:05:21.376Z,6.90
2022-11-27T16:07:54.677Z,6.90
2022-11-27T16:10:23.210Z,6.90
2022-11-27T16:12:54.968Z,6.90
2022-11-27T16:15:27.642Z,6.90
2022-11-27T16:17:59.654Z,7.00
2022-11-27T16:20:28.713Z,7.10
2022-11-27T16:22:56.746Z,7.00
2022-11-27T16:25:25.401Z,6.80
2022-11-27T16:27:57.947Z,6.60
2022-11-27T16:30:30.438Z,6.70
2022-11-27T16:32:58.376Z,6.90
2022-11-27T16:35:27.142Z,7.10
2022-11-27T16:37:55.094Z,7.10
2022-11-27T16:40:23.275Z,7.00
2022-11-27T16:42:51.274Z,7.00
2022-11-27T16:45:19.641Z,7.00
2022-11-27T16:47:49.081Z,7.00
2022-11-27T16:50:17.130Z,6.90
2022-11-27T16:52:47.082Z,6.60
2022-11-27T16:55:19.902Z,6.50
2022-11-27T16:57:48.150Z,6.40
2022-11-27T17:00:17.110Z,6.30
2022-11-27T17:02:45.374Z,6.20
2022-11-27T17:05:14.733Z,6.00
2022-11-27T17:07:42.830Z,5.90
2022-11-27T17:10:11.336Z,5.90
2022-11-27T17:12:39.244Z,5.60
2022-11-27T17:15:08.099Z,5.60
2022-11-27T17:17:40.132Z,5.60
2022-11-27T17:20:10.030Z,5.70
2022-11-27T17:22:39.355Z,5.80
2022-11-27T17:25:11.063Z,6.00
2022-11-27T17:27:39.013Z,6.00
2022-11-27T17:30:08.348Z,6.00
2022-11-27T17:32:36.371Z,5.90
2022-11-27T17:35:04.471Z,5.80
2022-11-27T17:37:32.473Z,5.80
2022-11-27T17:40:01.759Z,5.80
2022-11-27T17:42:29.809Z,5.90
2022-11-27T17:44:57.783Z,5.90
2022-11-27T17:47:25.741Z,6.00
2022-11-27T17:49:53.707Z,5.90
2022-11-27T17:52:21.698Z,5.90
2022-11-27T17:54:49.681Z,5.70
2022-11-27T17:57:19.103Z,5.70
2022-11-27T17:59:47.048Z,5.70
2022-11-27T18:02:15.142Z,5.70
2022-11-27T18:04:43.172Z,5.40
2022-11-27T18:07:11.190Z,5.50
2022-11-27T18:09:39.601Z,5.50
2022-11-27T18:12:08.570Z,5.60
2022-11-27T18:14:37.914Z,5.70
2022-11-27T18:17:07.130Z,5.80
2022-11-27T18:19:35.102Z,5.70
2022-11-27T18:22:03.255Z,5.70
2022-11-27T18:24:31.202Z,5.60
2022-11-27T18:27:08.105Z,5.60
2022-11-27T18:29:39.332Z,5.70
2022-11-27T18:32:07.804Z,5.60
2022-11-27T18:34:35.866Z,5.60
2022-11-27T18:37:04.301Z,5.40
2022-11-27T18:39:32.561Z,5.40
2022-11-27T18:42:00.586Z,5.40
2022-11-27T18:44:28.733Z,5.60
2022-11-27T18:46:58.097Z,5.60
2022-11-27T18:49:26.568Z,5.70
2022-11-27T18:51:56.382Z,5.70
2022-11-27T18:54:24.851Z,5.50
2022-11-27T18:56:52.856Z,5.20
2022-11-27T18:59:20.813Z,5.20
2022-11-27T19:01:49.101Z,5.40
2022-11-27T19:04:18.798Z,5.40
2022-11-27T19:06:47.230Z,5.50
2022-11-27T19:09:16.257Z,5.40
2022-11-27T19:11:44.382Z,5.20
2022-11-27T19:14:12.506Z,5.10
2022-11-27T19:16:46.085Z,5.00
2022-11-27T19:19:52.725Z,4.90
2022-11-27T19:22:05.587Z,4.80
2022-11-27T19:24:33.539Z,4.80
2022-11-27T19:27:01.501Z,4.80
2022-11-27T19:29:29.489Z,4.80
2022-11-27T19:31:58.874Z,4.90
2022-11-27T19:34:27.108Z,4.80
2022-11-27T19:36:55.837Z,4.80
2022-11-27T19:39:26.956Z,4.70
2022-11-27T19:41:54.938Z,4.30
2022-11-27T19:44:23.001Z,4.40
2022-11-27T19:46:50.985Z,4.50
2022-11-27T19:49:19.304Z,4.80
2022-11-27T19:51:47.684Z,4.60
2022-11-27T19:54:19.117Z,4.30
2022-11-27T19:56:48.454Z,4.20
2022-11-27T19:59:17.657Z,4.20
2022-11-27T20:01:48.327Z,4.30
2022-11-27T20:04:16.376Z,4.30
2022-11-27T20:06:44.378Z,4.30
2022-11-27T20:09:14.008Z,4.30
2022-11-27T20:11:42.037Z,4.30
2022-11-27T20:14:12.310Z,4.00
2022-11-27T20:16:40.417Z,4.10
2022-11-27T20:19:08.476Z,4.00
2022-11-27T20:21:39.435Z,4.10
2022-11-27T20:24:07.759Z,4.10
2022-11-27T20:26:41.317Z,4.20
2022-11-27T20:29:12.599Z,4.30
2022-11-27T20:31:43.822Z,4.20
2022-11-27T20:34:16.194Z,4.00
2022-11-27T20:36:44.171Z,4.00
2022-11-27T20:39:16.404Z,4.10
2022-11-27T20:41:49.577Z,4.20
2022-11-27T20:44:19.007Z,4.20
2022-11-27T20:46:47.201Z,4.10
2022-11-27T20:49:15.638Z,4.10
2022-11-27T20:51:43.892Z,4.10
2022-11-27T20:54:12.544Z,4.00
2022-11-27T20:56:41.174Z,3.90
2022-11-27T20:59:09.151Z,3.80
2022-11-27T21:01:39.376Z,3.70
2022-11-27T21:04:17.477Z,3.70
2022-11-27T21:06:45.491Z,3.90
2022-11-27T21:09:14.241Z,4.10
2022-11-27T21:11:43.081Z,4.10
2022-11-27T21:14:13.651Z,4.00
2022-11-27T21:16:46.110Z,4.00
2022-11-27T21:19:17.462Z,3.80
2022-11-27T21:21:45.709Z,3.80
2022-11-27T21:24:14.335Z,3.60
2022-11-27T21:26:42.803Z,3.60
2022-11-27T21:29:13.283Z,3.50
2022-11-27T21:31:46.840Z,3.50
2022-11-27T21:34:15.890Z,3.30
2022-11-27T21:36:43.893Z,3.70
2022-11-27T21:39:13.520Z,3.60
2022-11-27T21:41:41.533Z,4.00
2022-11-27T21:44:09.553Z,3.90
2022-11-27T21:46:37.765Z,4.00
2022-11-27T21:49:07.177Z,3.90
2022-11-27T21:51:35.181Z,3.90
2022-11-27T21:54:03.185Z,4.20
2022-11-27T21:56:33.961Z,4.30
2022-11-27T21:59:01.937Z,4.10
2022-11-27T22:01:30.174Z,4.00
2022-11-27T22:03:58.904Z,4.00
2022-11-27T22:06:31.651Z,4.00
2022-11-27T22:09:00.352Z,4.00
2022-11-27T22:11:30.843Z,3.90
2022-11-27T22:13:59.836Z,3.70
2022-11-27T22:16:30.552Z,3.60
2022-11-27T22:18:59.969Z,3.40
2022-11-27T22:21:30.309Z,3.40
2022-11-27T22:23:59.563Z,3.40
2022-11-27T22:26:28.267Z,3.30
2022-11-27T22:28:58.589Z,3.00
2022-11-27T22:31:30.172Z,3.20
2022-11-27T22:33:58.983Z,3.40
2022-11-27T22:36:31.374Z,3.50
2022-11-27T22:39:01.334Z,3.40
2022-11-27T22:41:32.023Z,3.70
2022-11-27T22:44:00.518Z,3.90
2022-11-27T22:46:32.314Z,4.00
2022-11-27T22:49:01.904Z,4.00
2022-11-27T22:51:32.968Z,4.10
2022-11-27T22:54:01.827Z,4.00
2022-11-27T22:56:29.962Z,3.90
2022-11-27T22:59:24.835Z,4.10
2022-11-27T23:01:48.560Z,4.10
2022-11-27T23:04:16.972Z,4.00
2022-11-27T23:06:48.423Z,4.20
2022-11-27T23:09:17.780Z,4.20
2022-11-27T23:11:46.267Z,4.40
2022-11-27T23:14:14.550Z,4.50
2022-11-27T23:16:42.759Z,4.40
2022-11-27T23:19:11.292Z,4.00
2022-11-27T23:21:39.866Z,3.90
2022-11-27T23:24:12.504Z,3.80
2022-11-27T23:26:40.586Z,3.70
2022-11-27T23:29:08.865Z,3.50
2022-11-27T23:31:36.985Z,3.50
2022-11-27T23:34:08.312Z,3.50
2022-11-27T23:36:37.178Z,3.50
2022-11-27T23:39:08.252Z,3.60
2022-11-27T23:41:37.852Z,3.30
2022-11-27T23:44:05.996Z,3.20
2022-11-27T23:46:33.983Z,3.30
2022-11-27T23:49:02.338Z,3.50
2022-11-27T23:51:31.989Z,3.30
2022-11-27T23:54:00.423Z,3.10
2022-11-27T23:56:30.462Z,3.10
2022-11-27T23:59:00.432Z,3.00
